Westland, Pennsylvania
Current Conditions -  °F | °C
As of 7:15 PM on Thursday 27 Nov 2014 (Local Time) from KAFJ Reporting Station
Broken Clouds Broken Clouds  
Wind Chill: 19°   Ceiling: 3000
Heat Index: 28°   Visibility: 6mi
Dew Point: 23°   Wind: 10mph
Humidity: 80%   Direction: 280°W
Pressure: 30.21"   Gusts: NA
Location:  40.28°N, 80.27°W
Report Text: KAFJ 280015Z 28009KT 6SM FEW022 BKN030 BKN035 M02/M05 A3021 RMK AO1
Loading
Personal Weather Stations






























Interactive Weather Map New forecast layout! Learn more

10-Day Weather Forecast

Advertisements
Track Severe Weather on mobile